createdAt,value
2023-07-04T00:00:23.386Z,211.45
2023-07-04T00:01:23.458Z,213.12
2023-07-04T00:02:23.516Z,211.82
2023-07-04T00:03:23.602Z,213.41
2023-07-04T00:04:23.607Z,215.91
2023-07-04T00:05:23.654Z,216.65
2023-07-04T00:06:23.690Z,216.11
2023-07-04T00:07:23.721Z,214.24
2023-07-04T00:08:23.789Z,209.97
2023-07-04T00:09:23.820Z,209.66
2023-07-04T00:10:23.911Z,207.43
2023-07-04T00:11:23.948Z,207.70
2023-07-04T00:12:24.028Z,209.04
2023-07-04T00:13:24.169Z,206.94
2023-07-04T00:14:24.194Z,205.46
2023-07-04T00:15:24.201Z,204.97
2023-07-04T00:16:24.338Z,204.58
2023-07-04T00:17:24.338Z,204.66
2023-07-04T00:18:24.415Z,204.78
2023-07-04T00:19:24.453Z,203.15
2023-07-04T00:20:24.563Z,205.36
2023-07-04T00:21:24.531Z,205.37
2023-07-04T00:22:24.605Z,207.39
2023-07-04T00:23:24.664Z,207.89
2023-07-04T00:24:24.703Z,207.91
2023-07-04T00:25:24.768Z,210.13
2023-07-04T00:26:24.855Z,210.04
2023-07-04T00:27:24.875Z,209.12
2023-07-04T00:28:24.921Z,209.19
2023-07-04T00:29:24.959Z,210.56
2023-07-04T00:30:25.020Z,211.04
2023-07-04T00:31:25.517Z,211.13
2023-07-04T00:32:25.144Z,212.84
2023-07-04T00:33:25.157Z,211.60
2023-07-04T00:34:25.220Z,213.03
2023-07-04T00:35:25.268Z,214.92
2023-07-04T00:36:25.337Z,215.99
2023-07-04T00:37:25.375Z,216.86
2023-07-04T00:38:25.439Z,217.13
2023-07-04T00:39:25.514Z,218.35
2023-07-04T00:40:25.561Z,219.72
2023-07-04T00:41:25.606Z,220.56
2023-07-04T00:42:25.672Z,218.84
2023-07-04T00:43:25.716Z,219.72
2023-07-04T00:44:25.775Z,219.16
2023-07-04T00:45:25.808Z,220.08
2023-07-04T00:46:25.936Z,218.79
2023-07-04T00:47:25.917Z,218.49
2023-07-04T00:48:25.980Z,218.05
2023-07-04T00:49:26.013Z,216.27
2023-07-04T00:50:26.106Z,216.29
2023-07-04T00:51:26.144Z,216.64
2023-07-04T00:52:26.214Z,215.64
2023-07-04T00:53:27.282Z,214.84
2023-07-04T00:54:26.302Z,216.60
2023-07-04T00:55:26.400Z,215.82
2023-07-04T00:56:26.434Z,216.77
2023-07-04T00:57:26.476Z,215.30
2023-07-04T00:58:26.524Z,216.89
2023-07-04T00:59:26.614Z,216.96
2023-07-04T01:00:26.671Z,217.07
2023-07-04T01:01:26.786Z,218.07
2023-07-04T01:02:26.803Z,218.15
2023-07-04T01:03:26.935Z,217.27
2023-07-04T01:04:26.859Z,215.79
2023-07-04T01:05:26.966Z,215.30
2023-07-04T01:06:26.972Z,215.63
2023-07-04T01:07:27.055Z,217.41
2023-07-04T01:08:27.099Z,218.05
2023-07-04T01:09:27.176Z,219.50
2023-07-04T01:10:27.209Z,218.84
2023-07-04T01:11:27.244Z,219.82
2023-07-04T01:12:27.319Z,220.70
2023-07-04T01:13:27.459Z,224.14
2023-07-04T01:14:27.431Z,224.18
2023-07-04T01:15:27.508Z,223.58
2023-07-04T01:16:27.644Z,224.31
2023-07-04T01:17:27.596Z,225.75
2023-07-04T01:18:27.631Z,224.93
2023-07-04T01:19:27.733Z,224.93
2023-07-04T01:20:27.814Z,226.47
2023-07-04T01:21:28.887Z,224.79
2023-07-04T01:22:27.902Z,224.82
2023-07-04T01:23:27.945Z,224.94
2023-07-04T01:24:28.006Z,224.60
2023-07-04T01:25:28.045Z,222.96
2023-07-04T01:26:28.105Z,223.00
2023-07-04T01:27:28.174Z,223.46
2023-07-04T01:28:28.208Z,221.88
2023-07-04T01:29:28.282Z,221.48
2023-07-04T01:30:28.307Z,223.28
2023-07-04T01:31:28.432Z,222.93
2023-07-04T01:32:28.504Z,224.68
2023-07-04T01:33:28.497Z,222.85
2023-07-04T01:34:28.580Z,223.70
2023-07-04T01:35:28.619Z,222.73
2023-07-04T01:36:28.713Z,222.78
2023-07-04T01:37:28.743Z,222.63
2023-07-04T01:38:28.825Z,224.16
2023-07-04T01:39:28.896Z,222.73
2023-07-04T01:40:28.962Z,223.67
2023-07-04T01:41:29.015Z,223.74
2023-07-04T01:42:29.071Z,223.04
2023-07-04T01:43:29.148Z,224.83
2023-07-04T01:44:29.231Z,224.24
2023-07-04T01:45:29.247Z,222.73
2023-07-04T01:46:29.352Z,221.47
2023-07-04T01:47:29.426Z,220.61
2023-07-04T01:48:29.434Z,218.93
2023-07-04T01:49:29.523Z,219.60
2023-07-04T01:50:29.550Z,220.56
2023-07-04T01:51:29.625Z,221.77
2023-07-04T01:52:29.692Z,222.74
2023-07-04T01:53:29.745Z,223.98
2023-07-04T01:54:29.814Z,226.01
2023-07-04T01:55:29.874Z,227.74
2023-07-04T01:56:29.960Z,226.22
2023-07-04T01:57:29.997Z,227.70
2023-07-04T01:58:30.046Z,226.88
2023-07-04T01:59:30.055Z,226.21
2023-07-04T02:00:30.121Z,226.35
2023-07-04T02:01:30.184Z,225.55
2023-07-04T02:02:30.226Z,227.07
2023-07-04T02:03:30.265Z,227.60
2023-07-04T02:04:30.262Z,228.26
2023-07-04T02:05:30.264Z,227.11
2023-07-04T02:06:30.314Z,225.68
2023-07-04T02:07:30.339Z,226.48
2023-07-04T02:08:30.370Z,225.43
2023-07-04T02:09:30.387Z,226.09
2023-07-04T02:10:30.481Z,227.81
2023-07-04T02:11:30.529Z,226.58
2023-07-04T02:12:30.611Z,227.80
2023-07-04T02:13:30.705Z,228.64
2023-07-04T02:14:30.718Z,230.36
2023-07-04T02:15:30.813Z,230.94
2023-07-04T02:16:30.832Z,231.51
2023-07-04T02:17:30.858Z,232.44
2023-07-04T02:18:30.936Z,231.67
2023-07-04T02:19:30.970Z,231.89
2023-07-04T02:20:31.030Z,232.48
2023-07-04T02:21:31.075Z,234.70
2023-07-04T02:22:31.116Z,234.65
2023-07-04T02:23:31.152Z,236.64
2023-07-04T02:24:31.174Z,236.28
2023-07-04T02:25:31.262Z,236.27
2023-07-04T02:26:31.315Z,236.03
2023-07-04T02:27:31.351Z,236.27
2023-07-04T02:28:31.398Z,235.77
2023-07-04T02:29:31.463Z,234.59
2023-07-04T02:30:31.501Z,236.26
2023-07-04T02:31:31.586Z,236.76
2023-07-04T02:32:31.676Z,236.34
2023-07-04T02:33:31.639Z,238.07
2023-07-04T02:34:31.698Z,238.65
2023-07-04T02:35:31.747Z,239.44
2023-07-04T02:36:31.818Z,238.36
2023-07-04T02:37:31.870Z,240.85
2023-07-04T02:38:31.897Z,240.86
2023-07-04T02:39:31.959Z,242.21
2023-07-04T02:40:32.051Z,241.88
2023-07-04T02:41:32.069Z,242.64
2023-07-04T02:42:32.136Z,242.86
2023-07-04T02:43:32.190Z,244.54
2023-07-04T02:44:32.222Z,244.14
2023-07-04T02:45:32.332Z,244.28
2023-07-04T02:46:32.369Z,245.43
2023-07-04T02:47:32.420Z,245.80
2023-07-04T02:48:32.472Z,243.30
2023-07-04T02:49:32.553Z,242.73
2023-07-04T02:50:32.584Z,243.47
2023-07-04T02:51:32.656Z,243.56
2023-07-04T02:52:32.717Z,244.31
2023-07-04T02:53:32.777Z,245.64
2023-07-04T02:54:32.849Z,246.14
2023-07-04T02:55:32.912Z,246.56
2023-07-04T02:56:32.974Z,247.05
2023-07-04T02:57:33.053Z,248.98
2023-07-04T02:58:33.061Z,248.98
2023-07-04T02:59:33.155Z,248.34
2023-07-04T03:00:33.215Z,248.96
2023-07-04T03:01:33.326Z,248.12
2023-07-04T03:02:33.478Z,247.77
2023-07-04T03:03:33.579Z,247.82
2023-07-04T03:04:33.472Z,247.92
2023-07-04T03:05:33.511Z,248.04
2023-07-04T03:06:33.580Z,249.49
2023-07-04T03:07:33.644Z,249.39
2023-07-04T03:08:33.704Z,248.04
2023-07-04T03:09:33.740Z,247.34
2023-07-04T03:10:34.422Z,247.70
2023-07-04T03:11:33.910Z,247.27
2023-07-04T03:12:33.949Z,247.01
2023-07-04T03:13:34.038Z,245.72
2023-07-04T03:14:34.076Z,247.66
2023-07-04T03:15:34.097Z,247.97
2023-07-04T03:16:34.195Z,250.00
2023-07-04T03:17:34.290Z,247.55
2023-07-04T03:18:34.284Z,248.33
2023-07-04T03:19:34.365Z,248.05
2023-07-04T03:20:34.414Z,248.99
2023-07-04T03:21:34.489Z,247.35
2023-07-04T03:22:34.548Z,247.38
2023-07-04T03:23:34.584Z,246.85
2023-07-04T03:24:34.673Z,244.21
2023-07-04T03:25:34.733Z,246.90
2023-07-04T03:26:34.768Z,245.01
2023-07-04T03:27:34.858Z,244.09
2023-07-04T03:28:34.900Z,244.81
2023-07-04T03:29:34.984Z,245.48
2023-07-04T03:30:35.034Z,243.06
2023-07-04T03:31:35.187Z,242.23
2023-07-04T03:32:35.175Z,240.98
2023-07-04T03:33:35.200Z,239.49
2023-07-04T03:34:35.281Z,238.28
2023-07-04T03:35:45.264Z,237.72
2023-07-04T03:36:36.383Z,237.80
2023-07-04T03:37:35.320Z,237.72
2023-07-04T03:38:35.320Z,236.08
2023-07-04T03:39:35.315Z,236.26
2023-07-04T03:40:35.312Z,236.05
2023-07-04T03:41:35.326Z,234.61
2023-07-04T03:42:35.382Z,234.33
2023-07-04T03:43:35.331Z,232.80
2023-07-04T03:44:35.380Z,232.62
2023-07-04T03:45:35.413Z,236.05
2023-07-04T03:46:35.500Z,233.97
2023-07-04T03:47:35.588Z,235.37
2023-07-04T03:48:35.670Z,234.83
2023-07-04T03:49:35.654Z,235.43
2023-07-04T03:50:35.733Z,234.34
2023-07-04T03:51:35.813Z,232.52
2023-07-04T03:52:35.841Z,230.67
2023-07-04T03:53:35.901Z,228.20
2023-07-04T03:54:35.978Z,228.61
2023-07-04T03:55:36.039Z,226.61
2023-07-04T03:56:36.090Z,227.27
2023-07-04T03:57:36.125Z,228.60
2023-07-04T03:58:36.203Z,227.50
2023-07-04T03:59:36.256Z,227.46
2023-07-04T04:00:36.305Z,226.37
2023-07-04T04:01:36.365Z,228.39
2023-07-04T04:02:36.481Z,226.25
2023-07-04T04:03:36.686Z,229.05
2023-07-04T04:04:38.935Z,229.17
2023-07-04T04:05:36.636Z,231.16
2023-07-04T04:06:36.571Z,228.94
2023-07-04T04:07:36.533Z,230.61
2023-07-04T04:08:36.570Z,231.41
2023-07-04T04:09:36.541Z,231.20
2023-07-04T04:10:36.533Z,231.84
2023-07-04T04:11:36.534Z,234.21
2023-07-04T04:12:36.520Z,232.44
2023-07-04T04:13:36.513Z,235.04
2023-07-04T04:14:36.482Z,234.11
2023-07-04T04:15:36.526Z,236.53
2023-07-04T04:16:36.513Z,237.13
2023-07-04T04:17:36.497Z,235.46
2023-07-04T04:18:36.493Z,236.57
2023-07-04T04:19:36.458Z,238.22
2023-07-04T04:20:36.472Z,237.03
2023-07-04T04:21:36.451Z,237.49
2023-07-04T04:22:36.441Z,237.38
2023-07-04T04:23:36.464Z,237.47
2023-07-04T04:24:36.493Z,238.96
2023-07-04T04:25:36.420Z,239.05
2023-07-04T04:26:36.449Z,240.22
2023-07-04T04:27:36.435Z,241.89
2023-07-04T04:28:36.416Z,241.66
2023-07-04T04:29:36.402Z,242.59
2023-07-04T04:30:36.459Z,241.65
2023-07-04T04:31:36.381Z,241.06
2023-07-04T04:32:36.368Z,239.76
2023-07-04T04:33:36.400Z,237.45
2023-07-04T04:34:36.345Z,235.05
2023-07-04T04:35:36.422Z,233.62
2023-07-04T04:36:36.509Z,234.00
2023-07-04T04:37:36.543Z,232.84
2023-07-04T04:38:36.655Z,232.90
2023-07-04T04:39:36.688Z,233.30
2023-07-04T04:40:36.800Z,230.07
2023-07-04T04:41:36.790Z,230.27
2023-07-04T04:42:37.078Z,227.99
2023-07-04T04:43:36.932Z,228.29
2023-07-04T04:44:36.961Z,232.75
2023-07-04T04:45:37.046Z,233.49
2023-07-04T04:46:37.173Z,236.69
2023-07-04T04:47:37.158Z,236.14
2023-07-04T04:48:37.180Z,236.64
2023-07-04T04:49:37.260Z,236.52
2023-07-04T04:50:37.290Z,235.86
2023-07-04T04:51:37.346Z,234.55
2023-07-04T04:52:37.407Z,235.36
2023-07-04T04:53:37.453Z,235.03
2023-07-04T04:54:37.510Z,233.72
2023-07-04T04:55:37.589Z,234.05
2023-07-04T04:56:37.645Z,234.59
2023-07-04T04:57:37.687Z,233.24
2023-07-04T04:58:37.751Z,231.48
2023-07-04T04:59:37.802Z,231.48
2023-07-04T05:02:04.374Z,25.00
2023-07-04T05:02:56.767Z,25.00
2023-07-04T05:03:56.706Z,25.00
2023-07-04T05:04:56.637Z,25.00
2023-07-04T05:05:56.653Z,25.00
2023-07-04T05:06:56.649Z,25.00
2023-07-04T05:07:56.631Z,28.82
2023-07-04T05:08:58.079Z,25.52
2023-07-04T05:09:56.699Z,21.39
2023-07-04T05:10:56.624Z,10.33
2023-07-04T05:11:56.585Z,4.81
2023-07-04T05:12:56.604Z,3.08
2023-07-04T05:13:56.688Z,10.01
2023-07-04T05:14:56.581Z,25.27
2023-07-04T05:15:56.616Z,25.00
2023-07-04T05:16:56.562Z,30.59
2023-07-04T05:17:56.622Z,32.75
2023-07-04T05:18:56.561Z,38.46
2023-07-04T05:19:56.540Z,37.55
2023-07-04T05:20:56.553Z,41.00
2023-07-04T05:21:56.524Z,39.44
2023-07-04T05:22:56.486Z,39.72
2023-07-04T05:23:56.499Z,46.64
2023-07-04T05:24:56.539Z,50.14
2023-07-04T05:25:56.574Z,49.94
2023-07-04T05:26:56.519Z,47.18
2023-07-04T05:27:56.503Z,48.46
2023-07-04T05:28:56.470Z,54.40
2023-07-04T05:29:56.475Z,61.71
2023-07-04T05:30:56.480Z,64.75
2023-07-04T05:31:56.513Z,68.78
2023-07-04T05:32:56.499Z,73.67
2023-07-04T05:33:56.456Z,64.79
2023-07-04T05:34:56.450Z,60.43
2023-07-04T05:35:56.898Z,43.35
2023-07-04T05:36:56.415Z,45.59
2023-07-04T05:37:56.493Z,46.26
2023-07-04T05:38:56.428Z,59.57
2023-07-04T05:39:56.399Z,99.05
2023-07-04T05:40:56.875Z,99.94
2023-07-04T05:41:56.390Z,80.43
2023-07-04T05:42:56.367Z,71.54
2023-07-04T05:43:56.369Z,67.88
2023-07-04T05:44:56.361Z,55.24
2023-07-04T05:47:15.390Z,25.00
2023-07-04T05:48:15.248Z,25.00
2023-07-04T05:49:15.234Z,25.00
2023-07-04T05:50:15.187Z,25.00
2023-07-04T05:51:15.362Z,25.00
2023-07-04T05:52:15.189Z,33.74
2023-07-04T05:53:15.217Z,34.79
2023-07-04T05:54:15.186Z,53.24
2023-07-04T05:55:15.198Z,43.99
2023-07-04T05:56:15.434Z,25.00
2023-07-04T05:57:15.132Z,25.00
2023-07-04T05:58:15.194Z,25.00
2023-07-04T05:59:15.436Z,24.30
2023-07-04T06:00:15.202Z,38.00
2023-07-04T06:01:15.459Z,66.77
2023-07-04T06:02:15.145Z,88.02
2023-07-04T06:03:15.275Z,73.27
2023-07-04T06:04:15.340Z,63.34
2023-07-04T06:05:15.194Z,60.53
2023-07-04T06:06:15.175Z,54.18
2023-07-04T06:07:15.112Z,48.50
2023-07-04T06:08:15.046Z,45.35
2023-07-04T06:09:15.109Z,46.02
2023-07-04T06:10:15.073Z,47.06
2023-07-04T06:11:15.438Z,45.48
2023-07-04T06:12:15.039Z,47.82
2023-07-04T06:13:15.054Z,52.86
2023-07-04T06:14:15.111Z,59.39
2023-07-04T06:15:15.035Z,68.52
2023-07-04T06:16:15.061Z,71.01
2023-07-04T06:17:15.054Z,71.13
2023-07-04T06:18:15.052Z,69.23
2023-07-04T06:19:14.997Z,66.62
2023-07-04T06:20:14.950Z,60.21
2023-07-04T06:21:15.455Z,53.25
2023-07-04T06:22:14.990Z,49.69
2023-07-04T06:23:15.007Z,46.64
2023-07-04T06:24:15.000Z,53.79
2023-07-04T06:25:15.052Z,58.25
2023-07-04T06:26:14.996Z,71.74
2023-07-04T06:27:14.946Z,76.61
2023-07-04T06:28:14.972Z,75.23
2023-07-04T06:29:14.988Z,75.65
2023-07-04T06:30:14.967Z,70.96
2023-07-04T06:31:15.510Z,72.69
2023-07-04T06:32:15.084Z,75.83
2023-07-04T06:33:15.101Z,76.43
2023-07-04T06:34:15.169Z,70.11
2023-07-04T06:35:15.164Z,68.00
2023-07-04T06:36:15.274Z,64.76
2023-07-04T06:37:15.422Z,64.43
2023-07-04T06:38:15.345Z,63.98
2023-07-04T06:39:15.385Z,64.61
2023-07-04T06:40:15.400Z,68.78
2023-07-04T06:41:15.447Z,74.87
2023-07-04T06:42:15.961Z,80.02
2023-07-04T06:43:15.494Z,91.63
2023-07-04T06:44:15.572Z,90.60
2023-07-04T06:45:15.536Z,72.28
2023-07-04T06:46:15.600Z,66.96
2023-07-04T06:47:15.703Z,54.25
2023-07-04T06:48:15.606Z,45.12
2023-07-04T06:49:15.643Z,31.81
2023-07-04T06:50:15.645Z,27.46
2023-07-04T06:51:15.745Z,24.00
2023-07-04T06:52:16.599Z,24.33
2023-07-04T06:53:15.803Z,26.05
2023-07-04T06:54:15.809Z,29.07
2023-07-04T06:55:15.852Z,27.39
2023-07-04T06:56:15.930Z,36.08
2023-07-04T06:57:15.972Z,41.08
2023-07-04T06:58:16.037Z,33.16
2023-07-04T06:59:16.038Z,31.70
2023-07-04T07:00:16.065Z,37.42
2023-07-04T07:01:16.120Z,33.37
2023-07-04T07:02:16.226Z,25.00
2023-07-04T07:03:17.213Z,25.00
2023-07-04T07:04:16.172Z,32.77
2023-07-04T07:05:16.227Z,33.18
2023-07-04T07:06:16.252Z,33.02
2023-07-04T07:07:16.335Z,35.57
2023-07-04T07:08:16.376Z,29.35
2023-07-04T07:09:16.377Z,25.00
2023-07-04T07:10:16.428Z,33.89
2023-07-04T07:11:16.429Z,44.27
2023-07-04T07:12:16.514Z,46.17
2023-07-04T07:13:16.536Z,48.46
2023-07-04T07:14:16.542Z,41.17
2023-07-04T07:15:16.515Z,27.48
2023-07-04T07:16:16.583Z,25.56
2023-07-04T07:17:16.664Z,25.00
2023-07-04T07:18:16.659Z,26.18
2023-07-04T07:19:16.705Z,25.00
2023-07-04T07:20:16.728Z,28.72
2023-07-04T07:21:16.768Z,28.36
2023-07-04T07:22:16.820Z,27.01
2023-07-04T07:23:16.783Z,28.83
2023-07-04T07:24:16.873Z,30.83
2023-07-04T07:25:16.874Z,34.73
2023-07-04T07:26:20.062Z,48.41
2023-07-04T07:27:18.016Z,48.72
2023-07-04T07:28:16.887Z,50.56
2023-07-04T07:30:16.939Z,58.15
2023-07-04T07:31:16.937Z,54.17
2023-07-04T07:32:16.929Z,53.39
2023-07-04T07:33:16.901Z,48.23
2023-07-04T07:34:16.882Z,47.17
2023-07-04T07:35:16.891Z,46.18
2023-07-04T07:36:16.853Z,43.10
2023-07-04T07:37:16.924Z,50.87
2023-07-04T07:38:16.881Z,50.78
2023-07-04T07:39:16.932Z,51.51
2023-07-04T07:40:16.865Z,51.08
2023-07-04T07:41:16.837Z,83.32
2023-07-04T07:42:16.849Z,75.36
2023-07-04T07:43:16.818Z,65.70
2023-07-04T07:44:16.938Z,58.67
2023-07-04T07:45:16.793Z,50.61
2023-07-04T07:46:16.840Z,43.55
2023-07-04T07:47:16.843Z,47.52
2023-07-04T07:48:16.882Z,41.95
2023-07-04T07:49:16.766Z,35.04
2023-07-04T07:50:16.793Z,39.30
2023-07-04T07:51:16.769Z,65.74
2023-07-04T07:52:16.847Z,98.95
2023-07-04T07:53:16.923Z,77.70
2023-07-04T07:54:16.826Z,72.83
2023-07-04T07:55:16.857Z,82.01
2023-07-04T07:56:16.785Z,80.05
2023-07-04T07:57:16.752Z,107.70
2023-07-04T07:58:16.779Z,119.50
2023-07-04T07:59:16.801Z,105.53
2023-07-04T08:00:16.816Z,87.67
2023-07-04T08:01:16.825Z,80.50
2023-07-04T08:02:16.884Z,94.48
2023-07-04T08:03:16.920Z,83.25
2023-07-04T08:04:16.878Z,83.94
2023-07-04T08:05:16.861Z,87.77
2023-07-04T08:06:16.798Z,99.26
2023-07-04T08:07:16.987Z,113.33
2023-07-04T08:08:16.781Z,135.97
2023-07-04T08:09:16.805Z,151.13
2023-07-04T08:10:16.881Z,152.44
2023-07-04T08:11:16.939Z,160.54
2023-07-04T08:12:17.054Z,185.59
2023-07-04T08:13:17.094Z,207.27
2023-07-04T08:14:17.169Z,208.43
2023-07-04T08:15:17.216Z,198.14
2023-07-04T08:16:17.301Z,188.07
2023-07-04T08:17:17.341Z,183.99
2023-07-04T08:18:17.421Z,177.51
2023-07-04T08:19:17.440Z,168.92
2023-07-04T08:20:17.521Z,159.90
2023-07-04T08:21:17.566Z,158.87
2023-07-04T08:22:17.941Z,157.46
2023-07-04T08:23:17.687Z,157.85
2023-07-04T08:24:17.738Z,159.10
2023-07-04T08:25:17.800Z,151.82
2023-07-04T08:26:17.854Z,152.25
2023-07-04T08:27:17.905Z,151.47
2023-07-04T08:28:17.945Z,145.69
2023-07-04T08:29:18.032Z,162.02
2023-07-04T08:30:18.090Z,143.01
2023-07-04T08:31:18.215Z,134.80
2023-07-04T08:32:18.272Z,109.57
2023-07-04T08:33:18.308Z,102.34
2023-07-04T08:34:18.339Z,117.59
2023-07-04T08:35:18.436Z,117.35
2023-07-04T08:36:18.387Z,121.23
2023-07-04T08:37:18.423Z,110.79
2023-07-04T08:38:18.474Z,128.75
2023-07-04T08:39:18.522Z,152.98
2023-07-04T08:40:18.581Z,144.13
2023-07-04T08:41:18.634Z,110.46
2023-07-04T08:42:18.690Z,91.82
2023-07-04T08:43:18.700Z,88.92
2023-07-04T08:44:18.805Z,104.30
2023-07-04T08:45:18.805Z,78.27
2023-07-04T08:46:18.920Z,34.35
2023-07-04T08:47:18.952Z,25.08
2023-07-04T08:48:18.937Z,45.25
2023-07-04T08:49:18.987Z,87.24
2023-07-04T08:50:19.035Z,90.17
2023-07-04T08:51:19.113Z,58.78
2023-07-04T08:52:19.140Z,56.35
2023-07-04T08:53:19.189Z,22.83
2023-07-04T08:54:19.226Z,36.58
2023-07-04T08:55:19.300Z,25.14
2023-07-04T08:56:19.354Z,20.76
2023-07-04T08:57:19.393Z,19.07
2023-07-04T08:58:19.415Z,21.92
2023-07-04T08:59:19.479Z,25.00
2023-07-04T09:00:19.465Z,28.25
2023-07-04T09:01:19.556Z,25.00
2023-07-04T09:02:19.580Z,31.72
2023-07-04T09:03:19.628Z,41.27
2023-07-04T09:04:19.562Z,27.01
2023-07-04T09:05:19.664Z,25.00
2023-07-04T09:06:19.684Z,28.61
2023-07-04T09:07:19.835Z,45.51
2023-07-04T09:08:19.861Z,82.89
2023-07-04T09:09:19.909Z,120.78
2023-07-04T09:10:19.973Z,145.08
2023-07-04T09:11:20.023Z,154.91
2023-07-04T09:12:20.027Z,159.51
2023-07-04T09:13:20.127Z,143.65
2023-07-04T09:14:20.149Z,81.85
2023-07-04T09:15:20.262Z,59.00
2023-07-04T09:16:20.326Z,99.24
2023-07-04T09:17:20.375Z,168.42
2023-07-04T09:18:22.414Z,128.11
2023-07-04T09:19:20.393Z,73.04
2023-07-04T09:20:20.432Z,60.68
2023-07-04T09:21:20.379Z,57.51
2023-07-04T09:22:20.400Z,90.98
2023-07-04T09:23:20.360Z,82.96
2023-07-04T09:24:20.414Z,163.12
2023-07-04T09:25:20.367Z,188.06
2023-07-04T09:26:20.333Z,224.41
2023-07-04T09:27:20.378Z,203.06
2023-07-04T09:28:20.307Z,159.36
2023-07-04T09:29:20.334Z,118.41
2023-07-04T09:30:20.339Z,114.87
2023-07-04T09:31:20.352Z,107.81
2023-07-04T09:32:20.388Z,160.47
2023-07-04T09:33:20.311Z,138.24
2023-07-04T09:34:20.305Z,97.34
2023-07-04T09:35:20.400Z,151.03
2023-07-04T09:36:20.339Z,188.87
2023-07-04T09:37:20.420Z,137.76
2023-07-04T09:38:20.418Z,152.79
2023-07-04T09:39:20.408Z,188.64
2023-07-04T09:40:20.379Z,174.09
2023-07-04T09:41:20.301Z,130.74
2023-07-04T09:42:29.995Z,117.78
2023-07-04T09:43:21.214Z,92.56
2023-07-04T09:44:20.203Z,90.56
2023-07-04T09:45:20.144Z,80.71
2023-07-04T09:46:20.226Z,72.30
2023-07-04T09:47:20.173Z,60.75
2023-07-04T09:48:20.120Z,113.87
2023-07-04T09:49:20.233Z,109.02
2023-07-04T09:50:20.229Z,81.26
2023-07-04T09:51:20.125Z,102.27
2023-07-04T09:52:20.605Z,119.17
2023-07-04T09:53:20.144Z,115.95
2023-07-04T09:54:20.107Z,76.17
2023-07-04T09:55:20.121Z,108.34
2023-07-04T09:56:20.158Z,129.88
2023-07-04T09:57:20.161Z,149.34
2023-07-04T09:58:20.194Z,121.41
2023-07-04T09:59:20.142Z,113.01
2023-07-04T10:00:20.232Z,151.74
2023-07-04T10:01:20.191Z,189.55
2023-07-04T10:02:21.099Z,194.40
2023-07-04T10:03:20.562Z,190.40
2023-07-04T10:04:20.270Z,189.33
2023-07-04T10:05:20.300Z,168.18
2023-07-04T10:06:20.231Z,111.32
2023-07-04T10:07:20.305Z,118.33
2023-07-04T10:08:20.317Z,130.12
2023-07-04T10:09:20.298Z,123.07
2023-07-04T10:10:20.514Z,80.59
2023-07-04T10:11:20.349Z,41.89
2023-07-04T10:12:20.330Z,26.86
2023-07-04T10:13:20.426Z,48.72
2023-07-04T10:14:20.404Z,102.82
2023-07-04T10:15:20.403Z,146.15
2023-07-04T10:16:20.475Z,169.71
2023-07-04T10:17:20.730Z,176.19
2023-07-04T10:18:20.415Z,162.83
2023-07-04T10:19:20.427Z,164.38
2023-07-04T10:20:20.399Z,169.49
2023-07-04T10:21:20.428Z,191.77
2023-07-04T10:22:20.515Z,252.27
2023-07-04T10:23:20.503Z,250.42
2023-07-04T10:24:20.466Z,223.44
2023-07-04T10:25:20.475Z,206.15
2023-07-04T10:26:20.537Z,175.13
2023-07-04T10:27:20.589Z,139.55
2023-07-04T10:28:21.084Z,111.50
2023-07-04T10:29:20.871Z,96.24
2023-07-04T10:30:22.220Z,104.07
2023-07-04T10:31:20.922Z,117.55
2023-07-04T10:32:20.835Z,126.39
2023-07-04T10:33:21.214Z,145.01
2023-07-04T10:34:20.641Z,126.18
2023-07-04T10:35:20.628Z,110.20
2023-07-04T10:36:20.678Z,109.56
2023-07-04T10:37:20.823Z,116.73
2023-07-04T10:38:21.023Z,139.20
2023-07-04T10:39:20.648Z,117.05
2023-07-04T10:40:20.631Z,119.67
2023-07-04T10:41:20.640Z,138.92
2023-07-04T10:42:20.611Z,129.61
2023-07-04T10:43:21.036Z,135.35
2023-07-04T10:44:20.614Z,135.20
2023-07-04T10:45:20.593Z,145.33
2023-07-04T10:46:20.634Z,152.75
2023-07-04T10:47:20.595Z,117.12
2023-07-04T10:48:20.629Z,82.03
2023-07-04T10:49:20.518Z,73.86
2023-07-04T10:50:20.526Z,70.28
2023-07-04T10:51:20.479Z,26.47
2023-07-04T10:52:20.495Z,25.41
2023-07-04T10:53:20.519Z,25.12
2023-07-04T10:54:20.538Z,30.52
2023-07-04T10:55:20.528Z,25.00
2023-07-04T10:56:20.511Z,28.14
2023-07-04T10:57:20.486Z,25.48
2023-07-04T10:58:20.537Z,25.12
2023-07-04T10:59:20.446Z,31.86
2023-07-04T11:00:20.481Z,32.98
2023-07-04T11:01:20.532Z,16.90
2023-07-04T11:02:20.472Z,20.38
2023-07-04T11:03:20.457Z,31.70
2023-07-04T11:04:20.463Z,51.49
2023-07-04T11:05:20.483Z,39.74
2023-07-04T11:06:20.383Z,29.42
2023-07-04T11:07:20.393Z,27.34
2023-07-04T11:08:20.423Z,32.11
2023-07-04T11:09:20.367Z,41.26
2023-07-04T11:10:20.418Z,24.98
2023-07-04T11:11:20.416Z,25.00
2023-07-04T11:12:20.369Z,25.00
2023-07-04T11:13:20.422Z,27.41
2023-07-04T11:14:20.368Z,33.82
2023-07-04T11:15:20.349Z,41.83
2023-07-04T11:16:20.408Z,51.13
2023-07-04T11:17:20.352Z,48.11
2023-07-04T11:18:20.365Z,42.94
2023-07-04T11:19:20.642Z,40.80
2023-07-04T11:20:20.311Z,46.15
2023-07-04T11:21:20.521Z,59.04
2023-07-04T11:22:20.429Z,72.49
2023-07-04T11:23:20.296Z,72.34
2023-07-04T11:24:20.279Z,86.27
2023-07-04T11:25:20.312Z,94.09
2023-07-04T11:26:20.259Z,153.71
2023-07-04T11:27:22.339Z,206.96
2023-07-04T11:28:20.299Z,207.95
2023-07-04T11:29:20.297Z,211.10
2023-07-04T11:30:20.298Z,214.58
2023-07-04T11:31:20.254Z,215.45
2023-07-04T11:32:20.276Z,183.20
2023-07-04T11:33:20.267Z,164.01
2023-07-04T11:34:20.211Z,150.27
2023-07-04T11:35:20.224Z,146.18
2023-07-04T11:36:20.219Z,142.50
2023-07-04T11:37:20.193Z,149.91
2023-07-04T11:38:20.214Z,121.71
2023-07-04T11:39:20.244Z,99.08
2023-07-04T11:40:20.214Z,82.96
2023-07-04T11:41:20.166Z,83.37
2023-07-04T11:42:20.169Z,88.45
2023-07-04T11:43:20.171Z,107.56
2023-07-04T11:44:20.150Z,112.91
2023-07-04T11:45:20.153Z,109.73
2023-07-04T11:46:20.176Z,112.00
2023-07-04T11:47:20.153Z,95.99
2023-07-04T11:48:20.165Z,91.55
2023-07-04T11:49:20.121Z,70.54
2023-07-04T11:50:20.122Z,68.97
2023-07-04T11:51:20.119Z,79.45
2023-07-04T11:52:20.126Z,83.85
2023-07-04T11:53:20.101Z,82.87
2023-07-04T11:54:20.105Z,93.58
2023-07-04T11:55:20.128Z,64.30
2023-07-04T11:56:20.079Z,24.15
2023-07-04T11:57:20.072Z,25.00
2023-07-04T11:58:20.067Z,26.56
2023-07-04T11:59:20.134Z,39.51
2023-07-04T12:00:20.039Z,52.61
2023-07-04T12:01:20.048Z,62.89
2023-07-04T12:02:20.110Z,61.39
2023-07-04T12:03:20.242Z,48.13
2023-07-04T12:04:20.170Z,39.46
2023-07-04T12:05:20.000Z,30.03
2023-07-04T12:06:20.025Z,26.06
2023-07-04T12:07:20.033Z,25.00
2023-07-04T12:08:20.000Z,25.10
2023-07-04T12:09:20.009Z,25.00
2023-07-04T12:10:20.004Z,25.00
2023-07-04T12:11:19.960Z,24.94
2023-07-04T12:12:19.989Z,26.25
2023-07-04T12:13:20.000Z,33.68
2023-07-04T12:14:19.980Z,43.44
2023-07-04T12:15:19.956Z,50.16
2023-07-04T12:16:19.980Z,56.34
2023-07-04T12:17:19.969Z,50.82
2023-07-04T12:18:19.938Z,50.52
2023-07-04T12:19:19.969Z,46.82
2023-07-04T12:20:19.918Z,42.36
2023-07-04T12:21:19.942Z,26.76
2023-07-04T12:22:19.910Z,24.19
2023-07-04T12:23:19.914Z,25.00
2023-07-04T12:24:19.890Z,31.78
2023-07-04T12:25:20.201Z,39.54
2023-07-04T12:26:19.866Z,43.87
2023-07-04T12:27:19.848Z,50.94
2023-07-04T12:28:19.864Z,65.97
2023-07-04T12:29:20.968Z,73.47
2023-07-04T12:30:19.831Z,77.95
2023-07-04T12:32:20.012Z,94.93
2023-07-04T12:33:19.865Z,99.22
2023-07-04T12:34:25.587Z,103.77
2023-07-04T12:35:20.847Z,103.89
2023-07-04T12:36:19.827Z,104.24
2023-07-04T12:37:19.804Z,89.20
2023-07-04T12:38:21.289Z,77.32
2023-07-04T12:39:19.818Z,75.00
2023-07-04T12:40:19.842Z,71.76
2023-07-04T12:41:19.809Z,72.48
2023-07-04T12:42:19.758Z,75.67
2023-07-04T12:45:19.754Z,78.64